createdAt,value
2022-08-27T00:02:02.626Z,53.96
2022-08-27T00:05:07.276Z,53.14
2022-08-27T00:08:12.651Z,52.33
2022-08-27T00:11:17.529Z,53.33
2022-08-27T00:14:20.894Z,52.63
2022-08-27T00:17:25.775Z,53.26
2022-08-27T00:20:29.153Z,52.68
2022-08-27T00:23:32.495Z,53.39
2022-08-27T00:26:39.099Z,54.15
2022-08-27T00:29:44.788Z,54.68
2022-08-27T00:32:50.062Z,54.40
2022-08-27T00:35:54.345Z,54.92
2022-08-27T00:38:57.678Z,54.38
2022-08-27T00:42:01.429Z,54.86
2022-08-27T00:45:05.635Z,54.79
2022-08-27T00:48:12.642Z,55.36
2022-08-27T00:51:16.157Z,53.82
2022-08-27T00:54:19.979Z,53.55
2022-08-27T00:57:23.545Z,54.32
2022-08-27T01:00:27.152Z,54.50
2022-08-27T01:03:31.998Z,54.20
2022-08-27T01:06:37.886Z,53.84
2022-08-27T01:09:43.005Z,54.09
2022-08-27T01:12:53.640Z,54.90
2022-08-27T01:15:59.186Z,54.21
2022-08-27T01:19:07.574Z,53.58
2022-08-27T01:22:23.102Z,53.35
2022-08-27T01:25:30.244Z,53.53
2022-08-27T01:28:37.626Z,53.92
2022-08-27T01:31:41.222Z,53.83
2022-08-27T01:34:44.681Z,53.76
2022-08-27T01:37:52.455Z,54.15
2022-08-27T01:40:57.267Z,53.93
2022-08-27T01:44:01.409Z,53.71
2022-08-27T01:47:04.930Z,52.94
2022-08-27T01:50:15.032Z,53.91
2022-08-27T01:53:20.986Z,52.76
2022-08-27T01:56:26.065Z,53.70
2022-08-27T01:59:39.430Z,53.83
2022-08-27T02:02:44.632Z,53.48
2022-08-27T02:05:49.170Z,52.82
2022-08-27T02:08:52.479Z,53.19
2022-08-27T02:11:57.647Z,53.94
2022-08-27T02:15:01.710Z,53.79
2022-08-27T02:18:07.082Z,54.42
2022-08-27T02:21:10.655Z,53.92
2022-08-27T02:24:13.950Z,53.80
2022-08-27T02:27:18.770Z,53.66
2022-08-27T02:30:24.890Z,53.02
2022-08-27T02:33:28.183Z,53.56
2022-08-27T02:36:31.679Z,53.80
2022-08-27T02:39:35.283Z,53.48
2022-08-27T02:42:42.498Z,53.59
2022-08-27T02:45:46.231Z,53.73
2022-08-27T02:48:49.768Z,53.99
2022-08-27T02:51:55.133Z,53.97
2022-08-27T02:54:58.950Z,54.51
2022-08-27T02:58:04.735Z,54.41
2022-08-27T03:01:11.142Z,55.02
2022-08-27T03:04:15.217Z,54.63
2022-08-27T03:07:19.163Z,54.50
2022-08-27T03:10:23.655Z,54.48
2022-08-27T03:13:28.939Z,54.86
2022-08-27T03:16:35.017Z,54.14
2022-08-27T03:19:37.362Z,53.84
2022-08-27T03:22:42.287Z,54.02
2022-08-27T03:25:47.726Z,53.94
2022-08-27T03:28:53.285Z,54.50
2022-08-27T03:31:56.611Z,54.32
2022-08-27T03:35:00.265Z,54.10
2022-08-27T03:38:03.686Z,54.57
2022-08-27T03:41:08.039Z,54.21
2022-08-27T03:44:16.727Z,53.23
2022-08-27T03:47:25.320Z,53.55
2022-08-27T03:50:29.031Z,54.15
2022-08-27T03:53:32.464Z,53.88
2022-08-27T03:56:39.426Z,53.99
2022-08-27T03:59:44.195Z,54.02
2022-08-27T04:02:47.576Z,55.31
2022-08-27T04:05:54.450Z,54.69
2022-08-27T04:08:57.898Z,54.04
2022-08-27T04:12:01.198Z,53.83
2022-08-27T04:15:07.849Z,54.46
2022-08-27T04:18:12.173Z,53.76
2022-08-27T04:21:16.686Z,54.67
2022-08-27T04:24:20.050Z,55.05
2022-08-27T04:27:25.682Z,55.90
2022-08-27T04:30:31.517Z,54.94
2022-08-27T04:33:35.058Z,54.61
2022-08-27T04:36:38.396Z,55.00
2022-08-27T04:39:41.673Z,54.70
2022-08-27T04:42:47.484Z,54.94
2022-08-27T04:45:52.201Z,54.44
2022-08-27T04:48:57.835Z,53.80
2022-08-27T04:52:01.215Z,52.99
2022-08-27T04:55:04.720Z,53.63
2022-08-27T04:58:08.330Z,54.39
2022-08-27T05:01:17.381Z,54.37
2022-08-27T05:04:20.739Z,54.49
2022-08-27T05:07:24.049Z,54.59
2022-08-27T05:10:27.443Z,55.14
2022-08-27T05:13:31.107Z,57.11
2022-08-27T05:16:37.054Z,57.61
2022-08-27T05:19:40.441Z,58.22
2022-08-27T05:22:43.715Z,58.18
2022-08-27T05:25:49.120Z,57.51
2022-08-27T05:28:52.761Z,57.22
2022-08-27T05:31:57.506Z,56.99
2022-08-27T05:35:00.849Z,56.57
2022-08-27T05:38:04.146Z,57.21
2022-08-27T05:41:10.800Z,56.28
2022-08-27T05:47:44.959Z,55.45
2022-08-27T05:50:48.439Z,55.00
2022-08-27T05:53:51.889Z,53.89
2022-08-27T05:56:55.178Z,52.92
2022-08-27T06:00:16.079Z,52.75
2022-08-27T06:03:20.876Z,52.26
2022-08-27T06:06:24.376Z,51.51
2022-08-27T06:09:30.056Z,51.04
2022-08-27T06:12:33.400Z,50.46
2022-08-27T06:15:36.777Z,49.94
2022-08-27T06:18:43.369Z,48.70
2022-08-27T06:22:00.831Z,48.03
2022-08-27T06:25:10.752Z,47.36
2022-08-27T06:28:14.130Z,48.00
2022-08-27T06:31:20.115Z,47.26
2022-08-27T06:34:24.859Z,46.75
2022-08-27T06:37:29.329Z,46.14
2022-08-27T06:40:32.733Z,45.17
2022-08-27T06:43:37.860Z,44.34
2022-08-27T06:46:41.700Z,45.47
2022-08-27T06:49:46.626Z,44.17
2022-08-27T06:52:49.923Z,43.69
2022-08-27T06:55:53.603Z,44.04
2022-08-27T06:58:58.800Z,44.04
2022-08-27T07:02:02.134Z,43.94
2022-08-27T07:05:08.281Z,42.38
2022-08-27T07:08:12.032Z,42.57
2022-08-27T07:11:16.255Z,41.96
2022-08-27T07:14:19.627Z,41.00
2022-08-27T07:17:22.988Z,39.95
2022-08-27T07:20:27.731Z,40.66
2022-08-27T07:23:32.013Z,39.47
2022-08-27T07:26:38.634Z,38.40
2022-08-27T07:29:41.925Z,38.25
2022-08-27T07:32:46.171Z,37.95
2022-08-27T07:35:52.165Z,37.55
2022-08-27T07:38:59.303Z,37.74
2022-08-27T07:42:22.532Z,36.84
2022-08-27T07:45:26.575Z,36.34
2022-08-27T07:48:31.041Z,35.26
2022-08-27T07:51:37.829Z,34.90
2022-08-27T07:54:41.581Z,35.07
2022-08-27T07:57:48.062Z,33.91
2022-08-27T08:00:51.414Z,32.88
2022-08-27T08:03:54.864Z,33.87
2022-08-27T08:06:59.673Z,33.64
2022-08-27T08:10:03.419Z,32.89
2022-08-27T08:13:07.165Z,32.30
2022-08-27T08:16:10.609Z,32.71
2022-08-27T08:19:13.951Z,32.01
2022-08-27T08:22:18.751Z,31.92
2022-08-27T08:25:22.058Z,32.25
2022-08-27T08:28:25.789Z,32.53
2022-08-27T08:31:29.087Z,32.24
2022-08-27T08:34:32.381Z,31.89
2022-08-27T08:37:38.022Z,31.57
2022-08-27T08:40:44.163Z,31.65
2022-08-27T08:43:51.639Z,32.08
2022-08-27T08:46:59.780Z,31.70
2022-08-27T08:50:06.254Z,31.32
2022-08-27T08:53:21.061Z,30.93
2022-08-27T08:56:29.739Z,31.96
2022-08-27T08:59:37.207Z,31.07
2022-08-27T09:02:40.779Z,30.55
2022-08-27T09:05:54.904Z,31.14
2022-08-27T09:09:05.275Z,30.87
2022-08-27T09:12:15.375Z,29.67
2022-08-27T09:15:23.249Z,29.96
2022-08-27T09:18:28.127Z,29.64
2022-08-27T09:21:42.117Z,30.10
2022-08-27T09:24:56.863Z,29.38
2022-08-27T09:28:02.905Z,28.86
2022-08-27T09:31:08.981Z,28.58
2022-08-27T09:34:14.642Z,28.64
2022-08-27T09:37:21.726Z,28.76
2022-08-27T09:40:32.232Z,28.13
2022-08-27T09:43:37.026Z,28.86
2022-08-27T09:46:40.804Z,26.99
2022-08-27T09:49:44.335Z,27.60
2022-08-27T09:52:54.135Z,27.82
2022-08-27T09:56:00.625Z,27.81
2022-08-27T09:59:07.075Z,28.75
2022-08-27T10:02:16.929Z,28.25
2022-08-27T10:05:29.194Z,27.60
2022-08-27T10:08:42.337Z,27.85
2022-08-27T10:11:54.472Z,26.95
2022-08-27T10:15:00.919Z,26.33
2022-08-27T10:18:11.355Z,27.09
2022-08-27T10:21:25.558Z,27.45
2022-08-27T10:24:39.967Z,26.16
2022-08-27T10:27:54.846Z,26.99
2022-08-27T10:31:18.027Z,26.47
2022-08-27T10:34:37.424Z,26.77
2022-08-27T10:37:52.286Z,26.68
2022-08-27T10:41:03.586Z,27.23
2022-08-27T10:44:30.107Z,25.74
2022-08-27T10:47:53.816Z,25.28
2022-08-27T10:51:06.869Z,25.87
2022-08-27T10:54:19.012Z,25.22
2022-08-27T10:57:54.234Z,25.04
2022-08-27T11:01:07.056Z,25.49
2022-08-27T11:04:14.526Z,26.22
2022-08-27T11:07:24.817Z,25.92
2022-08-27T11:10:30.988Z,25.96
2022-08-27T11:13:38.558Z,25.50
2022-08-27T11:16:48.409Z,25.93
2022-08-27T11:19:58.357Z,25.50
2022-08-27T11:23:07.148Z,24.67
2022-08-27T11:26:13.723Z,25.04
2022-08-27T11:29:31.636Z,25.21
2022-08-27T11:32:49.521Z,25.48
2022-08-27T11:36:20.310Z,25.25
2022-08-27T11:39:36.090Z,25.52
2022-08-27T11:42:42.812Z,25.04
2022-08-27T11:45:57.189Z,25.63
2022-08-27T11:49:04.066Z,25.55
2022-08-27T11:52:09.667Z,25.26
2022-08-27T11:55:25.135Z,24.71
2022-08-27T11:58:33.176Z,24.96
2022-08-27T12:01:56.491Z,24.46
2022-08-27T12:05:26.302Z,24.49
2022-08-27T12:08:32.907Z,24.46
2022-08-27T12:11:44.345Z,24.57
2022-08-27T12:14:55.125Z,24.56
2022-08-27T12:18:08.690Z,24.26
2022-08-27T12:21:24.013Z,24.70
2022-08-27T12:24:44.177Z,23.93
2022-08-27T12:27:58.695Z,24.56
2022-08-27T12:31:05.249Z,24.92
2022-08-27T12:34:16.803Z,25.27
2022-08-27T12:37:28.971Z,25.28
2022-08-27T12:40:41.339Z,25.05
2022-08-27T12:43:44.756Z,24.83
2022-08-27T12:46:51.237Z,24.78
2022-08-27T12:49:58.305Z,24.72
2022-08-27T12:53:24.664Z,24.86
2022-08-27T12:56:54.588Z,24.48
2022-08-27T13:00:09.010Z,24.32
2022-08-27T13:03:24.310Z,24.52
2022-08-27T13:06:33.182Z,24.35
2022-08-27T13:09:39.930Z,24.65
2022-08-27T13:12:44.558Z,24.04
2022-08-27T13:15:52.366Z,24.51
2022-08-27T13:18:56.072Z,23.87
2022-08-27T13:22:01.273Z,25.23
2022-08-27T13:25:07.553Z,24.85
2022-08-27T13:28:13.660Z,23.95
2022-08-27T13:31:18.671Z,23.99
2022-08-27T13:34:25.641Z,24.38
2022-08-27T13:37:35.988Z,24.53
2022-08-27T13:40:54.734Z,24.72
2022-08-27T13:43:59.790Z,24.44
2022-08-27T13:47:06.215Z,24.83
2022-08-27T13:50:18.406Z,24.48
2022-08-27T13:53:43.101Z,24.51
2022-08-27T13:57:08.285Z,24.12
2022-08-27T14:00:17.571Z,24.42
2022-08-27T14:03:31.839Z,24.62
2022-08-27T14:06:41.318Z,24.10
2022-08-27T14:09:54.389Z,24.32
2022-08-27T14:13:02.050Z,25.06
2022-08-27T14:16:15.882Z,24.55
2022-08-27T14:19:36.153Z,24.73
2022-08-27T14:22:40.028Z,24.68
2022-08-27T14:25:43.425Z,25.04
2022-08-27T14:28:48.244Z,25.09
2022-08-27T14:31:52.310Z,23.83
2022-08-27T14:34:55.638Z,24.04
2022-08-27T14:38:01.105Z,24.51
2022-08-27T14:41:06.701Z,24.88
2022-08-27T14:44:11.610Z,24.41
2022-08-27T14:47:16.974Z,24.81
2022-08-27T14:50:20.544Z,25.07
2022-08-27T14:53:24.316Z,25.20
2022-08-27T14:56:28.020Z,25.91
2022-08-27T14:59:33.239Z,26.51
2022-08-27T15:02:39.527Z,26.21
2022-08-27T15:05:43.089Z,26.16
2022-08-27T15:08:46.737Z,25.95
2022-08-27T15:11:50.767Z,25.43
2022-08-27T15:14:56.145Z,25.77
2022-08-27T15:17:59.614Z,26.20
2022-08-27T15:21:03.039Z,25.99
2022-08-27T15:24:12.271Z,26.07
2022-08-27T15:27:15.660Z,26.03
2022-08-27T15:30:26.428Z,26.42
2022-08-27T15:33:29.755Z,26.37
2022-08-27T15:36:33.086Z,26.47
2022-08-27T15:39:36.477Z,26.45
2022-08-27T15:42:40.748Z,26.22
2022-08-27T15:45:45.669Z,26.24
2022-08-27T15:48:49.143Z,26.74
2022-08-27T15:51:52.945Z,26.47
2022-08-27T15:54:57.991Z,26.49
2022-08-27T15:58:01.789Z,26.78
2022-08-27T16:01:11.920Z,26.58
2022-08-27T16:04:17.486Z,27.00
2022-08-27T16:07:21.343Z,27.36
2022-08-27T16:10:24.791Z,27.57
2022-08-27T16:13:28.438Z,27.79
2022-08-27T16:16:33.982Z,27.54
2022-08-27T16:19:38.522Z,27.95
2022-08-27T16:22:42.078Z,27.88
2022-08-27T16:25:45.419Z,28.28
2022-08-27T16:28:48.734Z,28.43
2022-08-27T16:32:00.571Z,28.55
2022-08-27T16:35:04.683Z,28.59
2022-08-27T16:38:08.074Z,28.85
2022-08-27T16:41:11.791Z,28.99
2022-08-27T16:44:15.847Z,29.43
2022-08-27T16:47:20.572Z,29.82
2022-08-27T16:50:34.863Z,29.69
2022-08-27T16:53:41.136Z,29.95
2022-08-27T16:56:46.272Z,30.49
2022-08-27T16:59:49.806Z,30.41
2022-08-27T17:02:54.678Z,30.96
2022-08-27T17:05:58.867Z,31.43
2022-08-27T17:09:05.014Z,31.57
2022-08-27T17:12:09.473Z,32.12
2022-08-27T17:15:14.608Z,32.31
2022-08-27T17:18:21.080Z,32.40
2022-08-27T17:21:29.141Z,32.73
2022-08-27T17:24:33.199Z,34.06
2022-08-27T17:27:36.475Z,34.28
2022-08-27T17:30:40.280Z,34.32
2022-08-27T17:33:47.600Z,35.24
2022-08-27T17:36:51.712Z,36.30
2022-08-27T17:39:55.401Z,36.45
2022-08-27T17:42:58.915Z,37.03
2022-08-27T17:46:02.373Z,36.53
2022-08-27T17:49:07.132Z,36.90
2022-08-27T17:52:16.440Z,37.16
2022-08-27T17:55:19.869Z,37.07
2022-08-27T17:58:23.148Z,37.18
2022-08-27T18:01:29.564Z,37.04
2022-08-27T18:04:34.373Z,37.13
2022-08-27T18:07:40.098Z,37.42
2022-08-27T18:10:46.459Z,37.03
2022-08-27T18:13:53.807Z,37.22
2022-08-27T18:16:58.048Z,36.90
2022-08-27T18:20:03.938Z,37.50
2022-08-27T18:23:07.613Z,37.12
2022-08-27T18:26:15.275Z,36.56
2022-08-27T18:29:19.994Z,36.99
2022-08-27T18:32:23.382Z,37.00
2022-08-27T18:35:30.806Z,36.32
2022-08-27T18:38:34.275Z,36.95
2022-08-27T18:41:37.708Z,36.60
2022-08-27T18:44:45.816Z,36.21
2022-08-27T18:47:50.845Z,36.63
2022-08-27T18:50:58.857Z,36.76
2022-08-27T18:54:02.247Z,36.92
2022-08-27T18:57:05.641Z,37.21
2022-08-27T19:00:19.018Z,36.68
2022-08-27T19:03:25.139Z,37.18
2022-08-27T19:06:29.833Z,36.83
2022-08-27T19:09:33.274Z,36.80
2022-08-27T19:12:36.789Z,37.75
2022-08-27T19:15:44.184Z,38.53
2022-08-27T19:18:47.914Z,40.48
2022-08-27T19:21:53.442Z,39.71
2022-08-27T19:24:57.023Z,39.17
2022-08-27T19:28:00.402Z,40.33
2022-08-27T19:31:03.741Z,40.30
2022-08-27T19:34:09.117Z,39.79
2022-08-27T19:37:20.342Z,39.08
2022-08-27T19:40:23.983Z,39.27
2022-08-27T19:43:27.704Z,38.97
2022-08-27T19:46:32.968Z,39.05
2022-08-27T19:49:36.326Z,39.25
2022-08-27T19:52:41.192Z,39.26
2022-08-27T19:55:46.093Z,39.55
2022-08-27T19:58:50.516Z,40.56
2022-08-27T20:01:56.474Z,41.00
2022-08-27T20:05:17.059Z,40.83
2022-08-27T20:08:22.931Z,41.05
2022-08-27T20:11:26.745Z,40.67
2022-08-27T20:14:30.222Z,41.10
2022-08-27T20:17:34.246Z,41.85
2022-08-27T20:20:38.141Z,42.73
2022-08-27T20:23:44.134Z,42.88
2022-08-27T20:26:47.707Z,43.98
2022-08-27T20:29:51.093Z,43.51
2022-08-27T20:32:55.077Z,43.59
2022-08-27T20:36:01.550Z,44.40
2022-08-27T20:39:06.376Z,44.84
2022-08-27T20:42:11.030Z,44.66
2022-08-27T20:45:15.953Z,44.50
2022-08-27T20:48:19.283Z,45.48
2022-08-27T20:51:22.623Z,45.17
2022-08-27T20:54:27.427Z,45.33
2022-08-27T20:57:30.752Z,45.35
2022-08-27T21:00:34.617Z,45.75
2022-08-27T21:03:39.471Z,45.17
2022-08-27T21:06:42.831Z,45.82
2022-08-27T21:09:55.899Z,45.91
2022-08-27T21:13:04.501Z,45.04
2022-08-27T21:16:09.269Z,45.84
2022-08-27T21:19:13.460Z,45.70
2022-08-27T21:22:16.802Z,46.13
2022-08-27T21:25:24.653Z,46.34
2022-08-27T21:28:27.961Z,46.02
2022-08-27T21:31:31.649Z,45.77
2022-08-27T21:34:35.020Z,45.59
2022-08-27T21:37:38.440Z,45.58
2022-08-27T21:40:43.254Z,46.79
2022-08-27T21:43:46.710Z,47.51
2022-08-27T21:46:50.059Z,46.80
2022-08-27T21:49:53.429Z,46.41
2022-08-27T21:52:56.987Z,46.76
2022-08-27T21:56:01.750Z,46.53
2022-08-27T21:59:06.190Z,47.58
2022-08-27T22:02:23.226Z,48.70
2022-08-27T22:05:33.190Z,47.89
2022-08-27T22:08:36.572Z,48.08
2022-08-27T22:11:41.759Z,47.76
2022-08-27T22:14:48.014Z,49.09
2022-08-27T22:17:51.566Z,49.02
2022-08-27T22:20:55.553Z,49.64
2022-08-27T22:23:58.916Z,49.49
2022-08-27T22:27:03.649Z,49.63
2022-08-27T22:30:11.128Z,49.57
2022-08-27T22:33:14.945Z,49.65
2022-08-27T22:36:18.586Z,49.67
2022-08-27T22:39:21.885Z,49.32
2022-08-27T22:42:28.937Z,49.51
2022-08-27T22:45:34.000Z,50.13
2022-08-27T22:48:37.447Z,49.43
2022-08-27T22:51:40.845Z,49.74
2022-08-27T22:54:44.218Z,50.26
2022-08-27T22:57:49.755Z,49.75
2022-08-27T23:00:54.821Z,49.65
2022-08-27T23:03:58.219Z,49.95
2022-08-27T23:07:01.977Z,50.09
2022-08-27T23:10:06.936Z,50.91
2022-08-27T23:13:12.888Z,50.61
2022-08-27T23:16:16.899Z,50.38
2022-08-27T23:19:20.419Z,50.65
2022-08-27T23:22:23.976Z,50.19
2022-08-27T23:25:45.717Z,50.29
2022-08-27T23:28:50.471Z,50.13
2022-08-27T23:31:54.343Z,50.81
2022-08-27T23:34:58.097Z,50.05
2022-08-27T23:38:01.398Z,49.04
2022-08-27T23:41:05.835Z,49.22
2022-08-27T23:44:10.709Z,49.14
2022-08-27T23:47:14.087Z,48.96
2022-08-27T23:50:17.592Z,48.52
2022-08-27T23:53:21.045Z,48.29
2022-08-27T23:56:28.094Z,49.01
2022-08-27T23:59:35.339Z,48.92
